createdAt,value
2022-09-26T00:01:57.973Z,21.5
2022-09-26T00:17:15.399Z,21.5
2022-09-26T00:48:29.868Z,21.4
2022-09-26T01:11:45.967Z,21.4
2022-09-26T01:27:03.283Z,21.3
2022-09-26T02:05:56.526Z,21.2
2022-09-26T02:36:51.287Z,21.1
2022-09-26T02:44:49.825Z,21.1
2022-09-26T03:15:51.172Z,21
2022-09-26T03:39:00.559Z,20.9
2022-09-26T04:17:47.275Z,20.8
2022-09-26T04:25:32.619Z,20.8
2022-09-26T04:56:40.655Z,20.7
2022-09-26T05:27:42.082Z,20.7
2022-09-26T05:58:37.083Z,20.6
2022-09-26T06:29:31.923Z,20.5
2022-09-26T06:45:15.805Z,20.5
2022-09-26T07:31:34.626Z,20.6
2022-09-26T08:02:49.102Z,20.7
2022-09-26T08:10:34.439Z,20.7
2022-09-26T08:49:20.974Z,20.8
2022-09-26T09:20:22.185Z,21
2022-09-26T09:35:39.613Z,21
2022-09-26T10:06:47.410Z,21.2
2022-09-26T10:45:27.263Z,21.3
2022-09-26T11:08:43.189Z,21.3
2022-09-26T11:39:44.358Z,21.4
2022-09-26T12:18:30.687Z,21.6
2022-09-26T12:34:14.433Z,21.6
2022-09-26T13:12:54.176Z,21.8
2022-09-26T13:36:09.981Z,21.8
2022-09-26T13:51:33.931Z,21.9
2022-09-26T14:38:12.139Z,21.9
2022-09-26T15:01:34.584Z,21.9
2022-09-26T15:24:43.834Z,21.8
2022-09-26T15:55:44.987Z,21.8
2022-09-26T16:19:07.473Z,21.8
2022-09-26T16:34:31.438Z,21.7
2022-09-26T17:05:39.203Z,21.7
2022-09-26T17:28:48.456Z,21.7
2022-09-26T17:52:04.351Z,21.7
2022-09-26T18:23:12.108Z,21.7
2022-09-26T18:38:42.733Z,21.7
2022-09-26T19:17:22.551Z,21.6
2022-09-26T19:32:46.571Z,21.6
2022-09-26T20:11:39.676Z,21.6
2022-09-26T20:35:02.192Z,21.6
2022-09-26T20:58:04.886Z,21.6
2022-09-26T21:36:57.990Z,21.6
2022-09-26T21:52:28.585Z,21.6
2022-09-26T22:23:29.749Z,21.5
2022-09-26T23:09:54.933Z,21.5
2022-09-26T23:25:32.119Z,21.5
2022-09-26T23:56:26.731Z,21.4
